Time;durP1;ratioP1;P1;durP2;ratioP2;P2;SDS_P1;SDS_P2;PMS_P1;PMS_P2;Temp;Humidity;BMP_temperature;BMP_pressure;BME280_temperature;BME280_humidity;BME280_pressure;Samples;Min_cycle;Max_cycle;Signal;HPM_P1;HPM_P2
2021/06/06 00:00:55;;;;;;;;;;;17.30;99.90;;;;;;4954518;28;20362;-77
2021/06/06 00:03:35;;;;;;;;;;;17.30;99.90;;;;;;4954617;28;20469;-77
2021/06/06 00:06:14;;;;;;;;;;;17.30;99.90;;;;;;4955878;28;19907;-78
2021/06/06 00:08:40;;;;;;;;;;;17.30;99.90;;;;;;4954448;28;20297;-77
2021/06/06 00:11:32;;;;;;;;;;;17.30;99.90;;;;;;4954474;28;19992;-78
2021/06/06 00:13:59;;;;;;;;;;;17.30;99.90;;;;;;4954418;29;20282;-78
2021/06/06 00:16:26;;;;;;;;;;;17.30;99.90;;;;;;4954156;28;19910;-78
2021/06/06 00:18:52;;;;;;;;;;;17.20;99.90;;;;;;4955367;28;19910;-77
2021/06/06 00:21:18;;;;;;;;;;;17.20;99.90;;;;;;4953481;28;19916;-78
2021/06/06 00:23:44;;;;;;;;;;;17.20;99.90;;;;;;4954141;28;19906;-77
2021/06/06 00:26:10;;;;;;;;;;;17.20;99.90;;;;;;4953884;29;19907;-78
2021/06/06 00:28:36;;;;;;;;;;;17.20;99.90;;;;;;4955179;28;19906;-77
2021/06/06 00:31:04;;;;;;;;;;;17.20;99.90;;;;;;4954084;28;19914;-77
2021/06/06 00:33:29;;;;;;;;;;;17.10;99.90;;;;;;4954341;28;20255;-77
2021/06/06 00:35:55;;;;;;;;;;;17.20;99.90;;;;;;4954057;28;19913;-77
2021/06/06 00:38:20;;;;;;;;;;;17.30;99.90;;;;;;4953856;28;19914;-78
2021/06/06 00:40:46;;;;;;;;;;;17.20;99.90;;;;;;4954877;28;19918;-77
2021/06/06 00:43:12;;;;;;;;;;;17.20;99.90;;;;;;4953974;28;19910;-77
2021/06/06 00:45:38;;;;;;;;;;;17.20;99.90;;;;;;4953963;28;19961;-77
2021/06/06 00:48:05;;;;;;;;;;;17.20;99.90;;;;;;4955047;28;19953;-77
2021/06/06 00:50:33;;;;;;;;;;;17.10;99.90;;;;;;4953478;29;19906;-77
2021/06/06 00:53:18;;;;;;;;;;;17.10;99.90;;;;;;4954786;28;20279;-78
2021/06/06 00:55:44;;;;;;;;;;;17.20;99.90;;;;;;4946556;29;20318;-77
2021/06/06 00:58:11;;;;;;;;;;;17.10;99.90;;;;;;4953512;28;19914;-77
2021/06/06 01:00:42;;;;;;;;;;;17.10;99.90;;;;;;4953804;28;19952;-78
2021/06/06 01:03:08;;;;;;;;;;;17.20;99.90;;;;;;4953605;28;19906;-77
2021/06/06 01:05:36;;;;;;;;;;;17.10;99.90;;;;;;4954880;28;19907;-77
2021/06/06 01:08:06;;;;;;;;;;;17.10;99.90;;;;;;4953521;28;19906;-77
2021/06/06 01:10:32;;;;;;;;;;;17.20;99.90;;;;;;4954626;28;19957;-77
2021/06/06 01:13:01;;;;;;;;;;;17.10;99.90;;;;;;4953379;28;19906;-77
2021/06/06 01:15:31;;;;;;;;;;;17.10;99.90;;;;;;4955052;28;19988;-78
2021/06/06 01:18:18;;;;;;;;;;;17.00;99.90;;;;;;4953317;28;19913;-78
2021/06/06 01:20:46;;;;;;;;;;;17.10;99.90;;;;;;4952984;28;19914;-77
2021/06/06 01:23:23;;;;;;;;;;;17.00;99.90;;;;;;4954482;28;19969;-78
2021/06/06 01:25:52;;;;;;;;;;;17.00;99.90;;;;;;4954236;28;19907;-78
2021/06/06 01:28:23;;;;;;;;;;;17.00;99.90;;;;;;4954120;28;19914;-77
2021/06/06 01:30:51;;;;;;;;;;;17.00;99.90;;;;;;4954109;28;19913;-77
2021/06/06 01:33:22;;;;;;;;;;;17.00;99.90;;;;;;4954226;28;19929;-78
2021/06/06 01:35:49;;;;;;;;;;;16.90;99.90;;;;;;4954285;28;19906;-77
2021/06/06 01:38:17;;;;;;;;;;;17.00;99.90;;;;;;4954216;28;19910;-77
2021/06/06 01:40:44;;;;;;;;;;;17.00;99.90;;;;;;4952779;28;20005;-78
2021/06/06 01:43:11;;;;;;;;;;;17.00;99.90;;;;;;4952611;28;19910;-78
2021/06/06 01:45:39;;;;;;;;;;;17.00;99.90;;;;;;4954111;28;19917;-78
2021/06/06 01:48:09;;;;;;;;;;;17.00;99.90;;;;;;4952958;28;19969;-78
2021/06/06 01:50:38;;;;;;;;;;;17.00;99.90;;;;;;4952900;28;19957;-78
2021/06/06 01:53:05;;;;;;;;;;;17.00;99.90;;;;;;4953947;28;19929;-77
2021/06/06 01:55:32;;;;;;;;;;;17.00;99.90;;;;;;4952793;28;19906;-78
2021/06/06 01:58:00;;;;;;;;;;;17.10;99.90;;;;;;4954010;28;20285;-78
2021/06/06 02:00:27;;;;;;;;;;;17.00;99.90;;;;;;4953754;28;20326;-78
2021/06/06 02:02:53;;;;;;;;;;;17.00;99.90;;;;;;4952927;28;19945;-78
2021/06/06 02:05:19;;;;;;;;;;;17.10;99.90;;;;;;4951686;28;20385;-78
2021/06/06 02:07:45;;;;;;;;;;;17.00;99.90;;;;;;4951490;29;25117;-77
2021/06/06 02:10:18;;;;;;;;;;;17.10;99.90;;;;;;4951410;28;20005;-78
2021/06/06 02:12:49;;;;;;;;;;;17.10;99.90;;;;;;4951619;28;20345;-78
2021/06/06 02:15:20;;;;;;;;;;;17.00;99.90;;;;;;4953497;28;24059;-78
2021/06/06 02:17:45;;;;;;;;;;;17.10;99.90;;;;;;4952779;28;19956;-77
2021/06/06 02:20:13;;;;;;;;;;;17.00;99.90;;;;;;4953692;28;19949;-78
2021/06/06 02:22:38;;;;;;;;;;;16.90;99.90;;;;;;4953734;28;19906;-78
2021/06/06 02:25:05;;;;;;;;;;;16.90;99.90;;;;;;4953894;28;20247;-77
2021/06/06 02:27:44;;;;;;;;;;;16.90;99.90;;;;;;4954015;28;19914;-78
2021/06/06 02:30:14;;;;;;;;;;;16.90;99.90;;;;;;4952467;28;19907;-77
2021/06/06 02:32:53;;;;;;;;;;;16.90;99.90;;;;;;4952586;28;19906;-78
2021/06/06 02:35:37;;;;;;;;;;;16.90;99.90;;;;;;4952407;28;20000;-77
2021/06/06 02:38:08;;;;;;;;;;;16.90;99.90;;;;;;4952301;28;19953;-77
2021/06/06 02:40:45;;;;;;;;;;;16.90;99.90;;;;;;4952128;28;19910;-78
2021/06/06 02:43:25;;;;;;;;;;;16.90;99.90;;;;;;4952091;28;20001;-77
2021/06/06 02:45:51;;;;;;;;;;;16.90;99.90;;;;;;4956757;28;19906;-78
2021/06/06 02:48:20;;;;;;;;;;;16.90;99.90;;;;;;4956204;28;19913;-77
2021/06/06 02:50:46;;;;;;;;;;;16.90;99.90;;;;;;4956854;28;20287;-77
2021/06/06 02:53:19;;;;;;;;;;;16.90;99.90;;;;;;4955475;28;19939;-77
2021/06/06 02:55:47;;;;;;;;;;;16.90;99.90;;;;;;4955771;28;20346;-77
2021/06/06 02:58:22;;;;;;;;;;;16.80;99.90;;;;;;4956506;28;19996;-77
2021/06/06 03:00:56;;;;;;;;;;;16.80;99.90;;;;;;4955361;28;19917;-78
2021/06/06 03:03:26;;;;;;;;;;;16.80;99.90;;;;;;4955917;28;19914;-78
2021/06/06 03:05:53;;;;;;;;;;;16.80;99.90;;;;;;4955460;28;19910;-78
2021/06/06 03:08:19;;;;;;;;;;;16.80;99.90;;;;;;4955464;28;20362;-78
2021/06/06 03:10:45;;;;;;;;;;;16.80;99.90;;;;;;4954902;29;19911;-78
2021/06/06 03:13:19;;;;;;;;;;;16.80;99.90;;;;;;4955186;28;19913;-78
2021/06/06 03:15:46;;;;;;;;;;;16.80;99.90;;;;;;4956401;28;19914;-78
2021/06/06 03:18:12;;;;;;;;;;;16.80;99.90;;;;;;4954545;28;19906;-78
2021/06/06 03:20:40;;;;;;;;;;;16.80;99.90;;;;;;4954970;28;19918;-77
2021/06/06 03:23:06;;;;;;;;;;;16.90;99.90;;;;;;4956242;28;19918;-78
2021/06/06 03:25:36;;;;;;;;;;;16.80;99.90;;;;;;4956488;28;20293;-78
2021/06/06 03:28:03;;;;;;;;;;;16.80;99.90;;;;;;4955068;28;19907;-78
2021/06/06 03:30:39;;;;;;;;;;;16.80;99.90;;;;;;4956075;28;19910;-78
2021/06/06 03:33:08;;;;;;;;;;;16.90;99.90;;;;;;4954648;28;19917;-78
2021/06/06 03:35:33;;;;;;;;;;;16.90;99.90;;;;;;4954994;28;19911;-78
2021/06/06 03:37:58;;;;;;;;;;;16.90;99.90;;;;;;4954925;28;20345;-78
2021/06/06 03:40:26;;;;;;;;;;;16.90;99.90;;;;;;4956001;28;19914;-78
2021/06/06 03:42:52;;;;;;;;;;;16.70;99.90;;;;;;4956228;28;19942;-78
2021/06/06 03:45:17;;;;;;;;;;;16.80;99.90;;;;;;4954937;29;20396;-78
2021/06/06 03:47:43;;;;;;;46.47;21.50;;;16.90;99.90;;;;;;4955921;28;20302;-78
2021/06/06 03:50:12;;;;;;;49.55;23.80;;;16.90;99.90;;;;;;4955546;28;20102;-78
2021/06/06 03:52:39;;;;;;;;;;;16.80;99.90;;;;;;4954737;28;20368;-78
2021/06/06 03:55:06;;;;;;;;;;;16.80;99.90;;;;;;4953994;28;19910;-78
2021/06/06 03:57:32;;;;;;;;;;;16.80;99.90;;;;;;4954696;29;19906;-78
2021/06/06 03:59:58;;;;;;;;;;;16.80;99.90;;;;;;4954419;28;19954;-78
2021/06/06 04:02:23;;;;;;;;;;;16.70;99.90;;;;;;4955730;28;19958;-78
2021/06/06 04:04:49;;;;;;;;;;;16.70;99.90;;;;;;4954604;28;19953;-79
2021/06/06 04:07:14;;;;;;;;;;;16.70;99.90;;;;;;4954711;28;19907;-78
2021/06/06 04:09:40;;;;;;;;;;;16.70;99.90;;;;;;4955496;28;19906;-78
2021/06/06 04:12:05;;;;;;;;;;;16.70;99.90;;;;;;4954396;28;19938;-78
2021/06/06 04:14:31;;;;;;;;;;;16.70;99.90;;;;;;4954272;28;19907;-78
2021/06/06 04:16:56;;;;;;;;;;;16.70;99.90;;;;;;4954334;28;19914;-78
2021/06/06 04:19:22;;;;;;;;;;;16.70;99.90;;;;;;4954039;28;19906;-78
2021/06/06 04:21:47;;;;;;;;;;;16.70;99.90;;;;;;4954420;28;20433;-78
2021/06/06 04:24:14;;;;;;;;;;;16.70;99.90;;;;;;4954327;29;20327;-78
2021/06/06 04:26:40;;;;;;;;;;;16.70;99.90;;;;;;4954130;28;19906;-78
2021/06/06 04:29:06;;;;;;;;;;;16.70;99.90;;;;;;4953766;28;20022;-78
2021/06/06 04:31:32;;;;;;;;;;;16.80;99.90;;;;;;4955260;28;19977;-78
2021/06/06 04:33:58;;;;;;;;;;;16.70;99.90;;;;;;4955354;28;20358;-78
2021/06/06 04:36:23;;;;;;;;;;;16.70;99.90;;;;;;4955373;28;20326;-78
2021/06/06 04:38:48;;;;;;;;;;;16.80;99.90;;;;;;4953816;28;19984;-78
2021/06/06 04:41:14;;;;;;;;;;;16.70;99.90;;;;;;4953710;28;19914;-78
2021/06/06 04:43:40;;;;;;;;;;;16.70;99.90;;;;;;4953658;29;20006;-78
2021/06/06 04:46:06;;;;;;;;;;;16.70;99.90;;;;;;4952782;28;20371;-78
2021/06/06 04:48:33;;;;;;;;;;;16.70;99.90;;;;;;4952947;28;20334;-78
2021/06/06 04:51:00;;;;;;;;;;;16.80;99.90;;;;;;4952588;29;20214;-78
2021/06/06 04:53:26;;;;;;;;;;;16.80;99.90;;;;;;4955419;28;19907;-78
2021/06/06 04:55:55;;;;;;;;;;;16.80;99.90;;;;;;4993066;28;19915;-78
2021/06/06 04:58:21;;;;;;;;;;;16.80;99.90;;;;;;4994513;28;19914;-78
2021/06/06 05:00:47;;;;;;;;;;;16.90;99.90;;;;;;4960071;28;19910;-78
2021/06/06 05:03:13;;;;;;;;;;;16.80;99.90;;;;;;4958362;28;19941;-78
2021/06/06 05:05:39;;;;;;;;;;;16.80;99.90;;;;;;4963187;28;19949;-78
2021/06/06 05:08:05;;;;;;;;;;;16.90;99.90;;;;;;4959883;28;19984;-79
2021/06/06 05:10:32;;;;;;;;;;;16.90;99.90;;;;;;4962560;28;19906;-79
2021/06/06 05:12:57;;;;;;;56.20;27.60;;;17.00;99.90;;;;;;4967219;28;19910;-78
2021/06/06 05:15:23;;;;;;;53.70;27.80;;;17.10;99.90;;;;;;4973240;28;20093;-79
2021/06/06 05:17:49;;;;;;;;;;;17.20;99.90;;;;;;4971687;28;19917;-79
2021/06/06 05:20:16;;;;;;;;;;;17.20;99.90;;;;;;4970828;28;19913;-79
2021/06/06 05:22:41;;;;;;;;;;;17.20;99.90;;;;;;4972710;28;19952;-78
2021/06/06 05:25:07;;;;;;;;;;;17.20;99.90;;;;;;4972650;28;20031;-78
2021/06/06 05:27:33;;;;;;;48.83;25.15;;;17.10;99.90;;;;;;4971211;28;19914;-78
2021/06/06 05:29:59;;;;;;;;;;;17.00;99.90;;;;;;4971002;28;20027;-78
2021/06/06 05:32:24;;;;;;;;;;;16.90;99.90;;;;;;4971402;28;20032;-78
2021/06/06 05:34:50;;;;;;;;;;;16.80;99.90;;;;;;4972756;28;19913;-78
2021/06/06 05:37:15;;;;;;;;;;;16.80;99.90;;;;;;5004044;28;20289;-79
2021/06/06 05:39:42;;;;;;;;;;;16.80;99.90;;;;;;5003709;28;19960;-78
2021/06/06 05:42:07;;;;;;;;;;;16.70;99.90;;;;;;4971383;28;19910;-78
2021/06/06 05:44:33;;;;;;;;;;;16.70;99.90;;;;;;5003942;28;19917;-78
2021/06/06 05:46:59;;;;;;;;;;;16.60;99.90;;;;;;5004033;28;20337;-78
2021/06/06 05:49:24;;;;;;;;;;;16.60;99.90;;;;;;4972219;28;19916;-79
2021/06/06 05:51:50;;;;;;;;;;;16.70;99.90;;;;;;4972446;28;20012;-79
2021/06/06 05:54:15;;;;;;;;;;;16.70;99.90;;;;;;4973000;28;19906;-78
2021/06/06 05:56:42;;;;;;;;;;;16.50;99.90;;;;;;4971156;28;19906;-78
2021/06/06 05:59:08;;;;;;;;;;;16.40;99.90;;;;;;5003354;28;19996;-79
2021/06/06 06:01:33;;;;;;;;;;;16.50;99.90;;;;;;5003515;28;20009;-79
2021/06/06 06:03:59;;;;;;;;;;;16.60;99.90;;;;;;5004268;28;19913;-80
2021/06/06 06:06:24;;;;;;;;;;;16.60;99.90;;;;;;4992436;28;19918;-78
2021/06/06 06:08:50;;;;;;;;;;;16.40;99.90;;;;;;4991858;28;19913;-78
2021/06/06 06:11:17;;;;;;;;;;;16.50;99.90;;;;;;4972259;28;19906;-78
2021/06/06 06:13:43;;;;;;;;;;;16.50;99.90;;;;;;4971122;28;19949;-78
2021/06/06 06:16:10;;;;;;;;;;;16.50;99.90;;;;;;4972380;28;19906;-78
2021/06/06 06:18:36;;;;;;;;;;;16.50;99.90;;;;;;4973584;28;20065;-78
2021/06/06 06:21:02;;;;;;;;;;;16.30;99.90;;;;;;4975402;28;19910;-78
2021/06/06 06:23:28;;;;;;;;;;;16.30;99.90;;;;;;4976681;28;20376;-78
2021/06/06 06:25:54;;;;;;;;;;;16.30;99.90;;;;;;4975342;28;20000;-79
2021/06/06 06:28:19;;;;;;;;;;;16.20;99.90;;;;;;4975542;28;19993;-79
2021/06/06 06:30:45;;;;;;;;;;;16.30;99.90;;;;;;4976342;28;19910;-80
2021/06/06 06:33:10;;;;;;;;;;;16.20;99.90;;;;;;4975434;28;19906;-78
2021/06/06 06:35:36;;;;;;;;;;;16.10;99.90;;;;;;4976513;28;19929;-79
2021/06/06 06:38:02;;;;;;;;;;;16.20;99.90;;;;;;4976596;28;20285;-78
2021/06/06 06:40:28;;;;;;;;;;;16.30;99.90;;;;;;4976018;28;20358;-79
2021/06/06 06:42:55;;;;;;;;;;;16.20;99.90;;;;;;4971945;28;19910;-79
2021/06/06 06:45:28;;;;;;;;;;;16.10;99.90;;;;;;4996309;28;20362;-79
2021/06/06 06:47:58;;;;;;;;;;;16.10;99.90;;;;;;4999117;28;19929;-79
2021/06/06 06:50:24;;;;;;;;;;;16.10;99.90;;;;;;4964167;28;20286;-79
2021/06/06 06:52:49;;;;;;;;;;;16.10;99.90;;;;;;4998522;28;19913;-79
2021/06/06 06:55:17;;;;;;;;;;;16.30;99.90;;;;;;4996616;28;19914;-79
2021/06/06 06:57:43;;;;;;;;;;;16.30;99.90;;;;;;5000010;28;19996;-78
2021/06/06 07:00:10;;;;;;;;;;;16.50;99.90;;;;;;4964888;28;20009;-79
2021/06/06 07:02:36;;;;;;;;;;;16.40;99.90;;;;;;4998050;28;19906;-79
2021/06/06 07:05:02;;;;;;;;;;;16.40;99.90;;;;;;4967101;28;19911;-79
2021/06/06 07:07:28;;;;;;;;;;;16.40;99.90;;;;;;4961619;28;19918;-79
2021/06/06 07:09:53;;;;;;;;;;;16.40;99.90;;;;;;4955180;28;19907;-79
2021/06/06 07:12:18;;;;;;;;;;;16.40;99.90;;;;;;4954970;28;19906;-79
2021/06/06 07:14:44;;;;;;;;;;;16.30;99.90;;;;;;4955255;28;19911;-79
2021/06/06 07:17:10;;;;;;;;;;;16.40;99.90;;;;;;4964711;28;19910;-78
2021/06/06 07:19:35;;;;;;;;;;;16.40;99.90;;;;;;4963553;28;19917;-79
2021/06/06 07:22:01;;;;;;;;;;;16.50;99.90;;;;;;4964494;28;20026;-79
2021/06/06 07:24:26;;;;;;;;;;;16.60;99.90;;;;;;4964186;28;19918;-78
2021/06/06 07:26:52;;;;;;;;;;;16.70;99.90;;;;;;4966361;28;19961;-79
2021/06/06 07:29:18;;;;;;;;;;;16.90;99.90;;;;;;4964277;28;20377;-79
2021/06/06 07:31:45;;;;;;;;;;;17.10;99.90;;;;;;5000127;28;20280;-78
2021/06/06 07:34:11;;;;;;;;;;;17.10;99.90;;;;;;4969451;28;19907;-79
2021/06/06 07:36:37;;;;;;;;;;;17.10;99.90;;;;;;5006724;28;19914;-78
2021/06/06 07:39:03;;;;;;;;;;;17.00;99.90;;;;;;4969556;28;19906;-79
2021/06/06 07:41:28;;;;;;;;;;;17.00;99.90;;;;;;5006939;28;19991;-78
2021/06/06 07:43:57;;;;;;;;;;;17.00;99.90;;;;;;5007119;28;20017;-80
2021/06/06 07:46:22;;;;;;;;;;;17.10;99.90;;;;;;5001219;28;19906;-79
2021/06/06 07:48:48;;;;;;;;;;;17.10;99.90;;;;;;4995802;28;19917;-79
2021/06/06 07:51:13;;;;;;;;;;;17.10;99.90;;;;;;4968545;28;19929;-78
2021/06/06 07:53:39;;;;;;;;;;;17.20;99.90;;;;;;4960904;28;20298;-80
2021/06/06 07:56:05;;;;;;;;;;;17.20;99.90;;;;;;4973245;28;19925;-79
2021/06/06 07:58:33;;;;;;;;;;;17.20;99.90;;;;;;4964800;28;19914;-79
2021/06/06 08:00:58;;;;;;;;;;;17.30;99.90;;;;;;4954233;29;19911;-79
2021/06/06 08:03:24;;;;;;;;;;;17.50;99.90;;;;;;4954905;28;20017;-79
2021/06/06 08:05:50;;;;;;;;;;;17.50;99.90;;;;;;4955503;28;19914;-78
2021/06/06 08:08:16;;;;;;;;;;;17.60;99.90;;;;;;4954974;28;19910;-79
2021/06/06 08:10:44;;;;;;;;;;;17.50;99.90;;;;;;4964427;28;19906;-80
2021/06/06 08:13:09;;;;;;;;;;;17.50;99.90;;;;;;4967938;28;19945;-80
2021/06/06 08:15:35;;;;;;;;;;;17.60;99.90;;;;;;4970029;28;19914;-79
2021/06/06 08:18:05;;;;;;;;;;;17.70;99.90;;;;;;5003067;28;19910;-79
2021/06/06 08:20:32;;;;;;;;;;;17.80;99.90;;;;;;4962680;28;20470;-80
2021/06/06 08:22:57;;;;;;;;;;;17.80;99.90;;;;;;4964746;28;19906;-79
2021/06/06 08:25:24;;;;;;;;;;;17.90;99.90;;;;;;4963577;28;20369;-80
2021/06/06 08:27:50;;;;;;;;;;;18.20;99.90;;;;;;4963795;28;20289;-80
2021/06/06 08:30:21;;;;;;;;;;;18.30;99.90;;;;;;4963356;28;20383;-80
2021/06/06 08:32:47;;;;;;;;;;;18.60;99.90;;;;;;4961351;28;19917;-79
2021/06/06 08:35:13;;;;;;;;;;;18.40;99.90;;;;;;4953820;28;19907;-79
2021/06/06 08:37:38;;;;;;;;;;;18.60;99.90;;;;;;4953903;28;19910;-79
2021/06/06 08:40:05;;;;;;;;;;;18.60;99.90;;;;;;4953385;28;19965;-79
2021/06/06 08:42:31;;;;;;;;;;;18.80;99.90;;;;;;4952649;28;19954;-79
2021/06/06 08:45:21;;;;;;;29.67;15.07;;;19.00;99.90;;;;;;4958245;28;19910;-79
2021/06/06 08:47:49;;;;;;;;;;;19.10;99.90;;;;;;4963481;28;20023;-79
2021/06/06 08:50:16;;;;;;;;;;;19.30;99.90;;;;;;4993794;28;19977;-80
2021/06/06 08:52:45;;;;;;;;;;;19.50;99.90;;;;;;4963840;28;19912;-79
2021/06/06 08:55:28;;;;;;;;;;;19.60;99.90;;;;;;4963973;28;19914;-79
2021/06/06 08:58:00;;;;;;;;;;;19.70;99.90;;;;;;4961075;28;19920;-79
2021/06/06 09:00:33;;;;;;;;;;;19.20;99.90;;;;;;4962878;28;19925;-79
2021/06/06 09:03:00;;;;;;;;;;;19.60;99.90;;;;;;4960138;28;19906;-80
2021/06/06 09:05:32;;;;;;;;;;;20.00;99.90;;;;;;4954339;28;19907;-79
2021/06/06 09:07:58;;;;;;;;;;;19.90;99.90;;;;;;4953112;28;19906;-80
2021/06/06 09:10:29;;;;;;;;;;;20.10;99.90;;;;;;4952293;29;19906;-79
2021/06/06 09:12:55;;;;;;;;;;;20.20;99.90;;;;;;4955451;28;24076;-80
2021/06/06 09:15:21;;;;;;;;;;;19.90;99.90;;;;;;4997100;28;20373;-79
2021/06/06 09:17:53;;;;;;;;;;;19.80;99.90;;;;;;4962017;28;20453;-81
2021/06/06 09:20:21;;;;;;;;;;;19.70;99.90;;;;;;4970699;28;20388;-79
2021/06/06 09:22:47;;;;;;;;;;;19.40;99.90;;;;;;4973499;28;19910;-80
2021/06/06 09:25:18;;;;;;;;;;;19.50;99.90;;;;;;4974207;28;19952;-79
2021/06/06 09:27:43;;;;;;;;;;;19.70;99.90;;;;;;5004730;28;20390;-81
2021/06/06 09:30:09;;;;;;;;;;;19.80;99.90;;;;;;4972006;28;20026;-79
2021/06/06 09:32:35;;;;;;;;;;;19.80;99.90;;;;;;4972130;28;19917;-79
2021/06/06 09:35:10;;;;;;;;;;;19.80;99.90;;;;;;5004680;28;19906;-79
2021/06/06 09:37:42;;;;;;;;;;;19.90;99.90;;;;;;4972261;28;20610;-79
2021/06/06 09:40:13;;;;;;;11.95;7.78;;;19.90;99.90;;;;;;4993898;28;19932;-80
2021/06/06 09:42:49;;;;;;;;;;;19.90;99.90;;;;;;4971597;28;20104;-80
2021/06/06 09:45:24;;;;;;;;;;;20.00;99.90;;;;;;4971967;28;19910;-80
2021/06/06 09:48:01;;;;;;;;;;;20.10;99.90;;;;;;4972390;28;20408;-79
2021/06/06 09:50:29;;;;;;;;;;;20.20;99.90;;;;;;4971966;28;19906;-80
2021/06/06 09:52:55;;;;;;;;;;;20.30;99.90;;;;;;4973565;28;19913;-81
2021/06/06 09:55:23;;;;;;;;;;;20.60;99.90;;;;;;4976277;28;20297;-81
2021/06/06 09:57:50;;;;;;;;;;;20.70;99.90;;;;;;4976492;28;20293;-81
2021/06/06 10:00:18;;;;;;;;;;;20.80;99.90;;;;;;4974846;28;19918;-80
2021/06/06 10:02:47;;;;;;;;;;;20.90;99.90;;;;;;4975244;28;20377;-81
2021/06/06 10:05:25;;;;;;;;;;;21.20;99.90;;;;;;4977268;28;19907;-81
2021/06/06 10:07:53;;;;;;;;;;;21.80;99.90;;;;;;4984847;28;19906;-81
2021/06/06 10:10:25;;;;;;;;;;;22.70;99.90;;;;;;4985470;28;19913;-81
2021/06/06 10:12:51;;;;;;;;;;;23.10;99.90;;;;;;4981680;28;19961;-82
2021/06/06 10:15:35;;;;;;;;;;;22.50;99.90;;;;;;4982536;28;19912;-82
2021/06/06 10:18:07;;;;;;;;;;;22.90;99.90;;;;;;4979808;28;20130;-80
2021/06/06 10:20:38;;;;;;;13.60;9.20;;;22.90;99.90;;;;;;4980865;28;20046;-82
2021/06/06 10:23:04;;;;;;;;;;;23.00;99.90;;;;;;4978471;28;19906;-81
2021/06/06 10:25:38;;;;;;;;;;;23.90;99.90;;;;;;4979281;28;19913;-82
2021/06/06 10:28:05;;;;;;;;;;;24.70;99.90;;;;;;4979710;28;20088;-81
2021/06/06 10:30:30;;;;;;;;;;;24.10;99.90;;;;;;4978858;28;20130;-81
2021/06/06 10:33:17;;;;;;;13.30;9.05;;;23.20;99.90;;;;;;4978545;28;20496;-80
2021/06/06 10:35:43;;;;;;;;;;;22.40;99.90;;;;;;4977859;28;20038;-81
2021/06/06 10:38:08;;;;;;;;;;;22.20;99.90;;;;;;4977923;28;20017;-81
2021/06/06 10:40:43;;;;;;;;;;;21.70;99.90;;;;;;4977772;28;20049;-81
2021/06/06 10:43:12;;;;;;;;;;;21.40;99.90;;;;;;4975385;28;20286;-81
2021/06/06 10:45:47;;;;;;;;;;;21.40;99.90;;;;;;4976582;28;20134;-81
2021/06/06 10:48:15;;;;;;;13.35;8.75;;;21.50;99.90;;;;;;4976445;28;20047;-80
2021/06/06 10:50:44;;;;;;;15.02;9.77;;;21.50;99.90;;;;;;4976859;28;20174;-80
2021/06/06 10:53:26;;;;;;;12.93;8.45;;;21.70;99.90;;;;;;4975920;28;20031;-80
2021/06/06 10:56:06;;;;;;;;;;;22.20;99.90;;;;;;4976287;28;20023;-80
2021/06/06 10:58:35;;;;;;;;;;;22.20;99.90;;;;;;4976020;28;20085;-80
2021/06/06 11:01:05;;;;;;;;;;;22.20;99.90;;;;;;4975619;28;20085;-80
2021/06/06 11:03:35;;;;;;;;;;;22.20;99.90;;;;;;4976672;28;24112;-80
2021/06/06 11:06:02;;;;;;;;;;;22.30;99.90;;;;;;4976220;28;19906;-80
2021/06/06 11:08:27;;;;;;;;;;;22.60;99.90;;;;;;4978220;28;20034;-80
2021/06/06 11:11:07;;;;;;;;;;;22.70;99.90;;;;;;4979157;28;20105;-80
2021/06/06 11:13:38;;;;;;;14.25;9.32;;;22.90;99.90;;;;;;4976815;28;20080;-80
2021/06/06 11:16:19;;;;;;;13.70;8.85;;;22.90;99.90;;;;;;4977440;28;20038;-81
2021/06/06 11:19:11;;;;;;;13.63;9.48;;;23.20;99.90;;;;;;4973141;28;20069;-80
2021/06/06 11:21:39;;;;;;;12.98;8.80;;;22.70;99.90;;;;;;4971482;28;20509;-80
2021/06/06 11:24:06;;;;;;;;;;;22.90;99.90;;;;;;4956832;28;20207;-80
2021/06/06 11:26:45;;;;;;;;;;;23.00;99.90;;;;;;4957345;29;24062;-79
2021/06/06 11:29:10;;;;;;;;;;;22.80;99.90;;;;;;4956765;28;20068;-80
2021/06/06 11:31:36;;;;;;;;;;;23.20;99.90;;;;;;4959007;28;20031;-80
2021/06/06 11:34:04;;;;;;;;;;;23.90;99.90;;;;;;4956593;29;20028;-80
2021/06/06 11:36:32;;;;;;;;;;;24.50;99.90;;;;;;4956907;28;19907;-81
2021/06/06 11:39:09;;;;;;;;;;;24.60;99.90;;;;;;4956541;28;20492;-83
2021/06/06 11:41:37;;;;;;;;;;;23.70;99.90;;;;;;4957165;28;20078;-81
2021/06/06 11:44:22;;;;;;;;;;;23.50;99.90;;;;;;4956978;29;20013;-80
2021/06/06 11:46:58;;;;;;;10.00;6.75;;;24.60;99.90;;;;;;4956546;29;20120;-79
2021/06/06 11:49:34;;;;;;;;;;;25.40;99.90;;;;;;4957175;28;20023;-81
2021/06/06 11:52:41;;;;;;;10.45;7.03;;;25.10;99.90;;;;;;4956862;28;19975;-80
2021/06/06 11:55:15;;;;;;;10.57;6.85;;;24.40;99.90;;;;;;4958529;28;20404;-80
2021/06/06 11:57:53;;;;;;;10.48;6.70;;;24.60;99.90;;;;;;4957863;29;20391;-80
2021/06/06 12:00:20;;;;;;;12.10;7.13;;;25.00;99.90;;;;;;4956570;28;20037;-80
2021/06/06 12:02:46;;;;;;;;;;;24.50;99.90;;;;;;4957306;28;20513;-80
2021/06/06 12:05:11;;;;;;;;;;;24.30;99.90;;;;;;4959637;29;19947;-80
2021/06/06 12:07:41;;;;;;;10.43;6.90;;;23.20;99.90;;;;;;4957230;28;19906;-80
2021/06/06 12:10:06;;;;;;;;;;;22.80;99.90;;;;;;4955622;28;19957;-80
2021/06/06 12:12:36;;;;;;;;;;;23.10;99.90;;;;;;4955679;28;19913;-80
2021/06/06 12:15:05;;;;;;;;;;;23.00;99.90;;;;;;4955929;29;19906;-81
2021/06/06 12:17:30;;;;;;;;;;;23.30;99.90;;;;;;4954512;28;20285;-81
2021/06/06 12:19:57;;;;;;;;;;;23.20;99.90;;;;;;4955506;28;20114;-80
2021/06/06 12:22:25;;;;;;;;;;;23.40;99.90;;;;;;4957771;28;19965;-80
2021/06/06 12:25:13;;;;;;;11.40;7.25;;;23.40;99.90;;;;;;4955377;29;20267;-80
2021/06/06 12:27:59;;;;;;;;;;;23.70;99.90;;;;;;4955799;28;20034;-80
2021/06/06 12:30:29;;;;;;;;;;;24.00;99.90;;;;;;4949113;29;19911;-80
2021/06/06 12:32:56;;;;;;;;;;;23.90;99.90;;;;;;4955403;28;20038;-81
2021/06/06 12:35:24;;;;;;;;;;;23.70;99.90;;;;;;4956086;28;20035;-80
2021/06/06 12:37:59;;;;;;;;;;;23.30;99.90;;;;;;5103797;27;20078;-80
2021/06/06 12:40:26;;;;;;;;;;;23.00;99.90;;;;;;5102944;28;19909;-80
2021/06/06 12:42:57;;;;;;;;;;;22.90;99.90;;;;;;5070257;28;19904;-81
2021/06/06 12:45:23;;;;;;;;;;;23.00;99.90;;;;;;5068796;28;19904;-80
2021/06/06 12:47:48;;;;;;;;;;;23.10;99.90;;;;;;5069002;28;19908;-80
2021/06/06 12:50:14;;;;;;;;;;;23.50;99.90;;;;;;5069040;28;20471;-81
2021/06/06 12:52:41;;;;;;;;;;;23.80;99.90;;;;;;5072069;28;19904;-80
2021/06/06 12:55:25;;;;;;;;;;;23.60;99.90;;;;;;5070586;28;20209;-82
2021/06/06 12:57:52;;;;;;;;;;;23.20;99.90;;;;;;5070410;28;19909;-80
2021/06/06 13:00:24;;;;;;;;;;;22.70;99.90;;;;;;5069407;28;19905;-80
2021/06/06 13:02:49;;;;;;;;;;;22.60;99.90;;;;;;5068873;28;19911;-79
2021/06/06 13:05:31;;;;;;;;;;;22.60;99.90;;;;;;5069995;28;20037;-80
2021/06/06 13:07:58;;;;;;;;;;;22.60;99.90;;;;;;5068950;28;19904;-80
2021/06/06 13:10:56;;;;;;;;;;;22.50;99.90;;;;;;5067804;28;24080;-80
2021/06/06 13:13:31;;;;;;;;;;;22.60;99.90;;;;;;5057881;28;19904;-81
2021/06/06 13:15:57;;;;;;;;;;;22.40;99.90;;;;;;5070134;28;19912;-80
2021/06/06 13:18:24;;;;;;;;;;;22.10;99.90;;;;;;5071250;28;20322;-80
2021/06/06 13:20:49;;;;;;;;;;;22.50;99.90;;;;;;5069613;28;19909;-80
2021/06/06 13:23:27;;;;;;;;;;;22.80;99.90;;;;;;5073794;28;19933;-83
2021/06/06 13:25:52;;;;;;;;;;;23.10;99.90;;;;;;5077544;28;19908;-83
2021/06/06 13:28:21;;;;;;;;;;;23.10;99.90;;;;;;5077533;28;19916;-82
2021/06/06 13:30:47;;;;;;;;;;;23.10;99.90;;;;;;5076998;28;19904;-83
2021/06/06 13:33:14;;;;;;;;;;;23.30;99.90;;;;;;5076623;28;19914;-83
2021/06/06 13:35:40;;;;;;;10.25;6.10;;;23.60;99.90;;;;;;5076479;28;19909;-82
2021/06/06 13:38:06;;;;;;;9.17;5.97;;;23.50;99.90;;;;;;5076106;28;20021;-83
2021/06/06 13:40:33;;;;;;;;;;;23.40;99.90;;;;;;5075658;28;20314;-83
2021/06/06 13:42:59;;;;;;;;;;;23.30;99.90;;;;;;5079015;28;20003;-83
2021/06/06 13:45:27;;;;;;;;;;;22.90;99.90;;;;;;5079449;28;24078;-82
2021/06/06 13:47:53;;;;;;;;;;;22.90;99.90;;;;;;5075250;28;19905;-83
2021/06/06 13:50:20;;;;;;;;;;;22.70;99.90;;;;;;5068174;28;19916;-83
2021/06/06 13:52:46;;;;;;;;;;;22.70;99.90;;;;;;5067167;28;19912;-83
2021/06/06 13:55:18;;;;;;;11.70;6.60;;;23.00;99.90;;;;;;5068407;28;19980;-82
2021/06/06 13:57:44;;;;;;;10.73;6.90;;;23.40;99.90;;;;;;5067511;28;20027;-83
2021/06/06 14:00:12;;;;;;;;;;;23.20;99.90;;;;;;5063346;28;19987;-83
2021/06/06 14:02:41;;;;;;;;;;;23.30;99.90;;;;;;5062888;28;19956;-81
2021/06/06 14:05:06;;;;;;;;;;;22.90;99.90;;;;;;5064337;28;19915;-83
2021/06/06 14:07:33;;;;;;;;;;;23.10;99.90;;;;;;5064392;28;19904;-83
2021/06/06 14:09:59;;;;;;;;;;;23.50;99.90;;;;;;5062757;28;19908;-83
2021/06/06 14:12:24;;;;;;;;;;;23.60;99.90;;;;;;5065363;28;19905;-83
2021/06/06 14:14:50;;;;;;;;;;;23.80;99.90;;;;;;5064299;28;19904;-83
2021/06/06 14:17:15;;;;;;;;;;;23.80;99.90;;;;;;5063460;28;19909;-83